sensor_id;sensor_type;location;lat;lon;timestamp;temperature;humidity
20432;DHT22;10375;49.136;10.366;2024-01-15T00:01:14;-3.90;99.90
20432;DHT22;10375;49.136;10.366;2024-01-15T00:03:42;-3.90;99.90
20432;DHT22;10375;49.136;10.366;2024-01-15T00:06:12;-3.90;99.90
20432;DHT22;10375;49.136;10.366;2024-01-15T00:08:39;-3.90;99.90
20432;DHT22;10375;49.136;10.366;2024-01-15T00:11:06;-3.80;99.90
20432;DHT22;10375;49.136;10.366;2024-01-15T00:13:34;-3.80;99.90
20432;DHT22;10375;49.136;10.366;2024-01-15T00:16:00;-3.80;99.90
20432;DHT22;10375;49.136;10.366;2024-01-15T00:18:28;-3.80;99.90
20432;DHT22;10375;49.136;10.366;2024-01-15T00:20:55;-3.80;99.90
20432;DHT22;10375;49.136;10.366;2024-01-15T00:23:22;-3.70;99.90
20432;DHT22;10375;49.136;10.366;2024-01-15T00:25:51;-3.70;99.90
20432;DHT22;10375;49.136;10.366;2024-01-15T00:28:18;-3.70;99.90
20432;DHT22;10375;49.136;10.366;2024-01-15T00:30:45;-3.70;99.90
20432;DHT22;10375;49.136;10.366;2024-01-15T00:33:13;-3.70;99.90
20432;DHT22;10375;49.136;10.366;2024-01-15T00:35:41;-3.60;99.90
20432;DHT22;10375;49.136;10.366;2024-01-15T00:38:09;-3.60;99.90
20432;DHT22;10375;49.136;10.366;2024-01-15T00:40:36;-3.60;99.90
20432;DHT22;10375;49.136;10.366;2024-01-15T00:43:03;-3.60;99.90
20432;DHT22;10375;49.136;10.366;2024-01-15T00:45:30;-3.50;99.90
20432;DHT22;10375;49.136;10.366;2024-01-15T00:47:58;-3.50;99.90
20432;DHT22;10375;49.136;10.366;2024-01-15T00:50:28;-3.50;99.90
20432;DHT22;10375;49.136;10.366;2024-01-15T00:52:55;-3.50;99.90
20432;DHT22;10375;49.136;10.366;2024-01-15T00:55:22;-3.50;99.90
20432;DHT22;10375;49.136;10.366;2024-01-15T00:57:50;-3.40;99.90
20432;DHT22;10375;49.136;10.366;2024-01-15T01:00:17;-3.40;99.90
20432;DHT22;10375;49.136;10.366;2024-01-15T01:02:45;-3.40;99.90
20432;DHT22;10375;49.136;10.366;2024-01-15T01:05:12;-3.40;99.90
20432;DHT22;10375;49.136;10.366;2024-01-15T01:07:40;-3.40;99.90
20432;DHT22;10375;49.136;10.366;2024-01-15T01:10:07;-3.40;99.90
20432;DHT22;10375;49.136;10.366;2024-01-15T01:12:35;-3.30;99.90
20432;DHT22;10375;49.136;10.366;2024-01-15T01:15:02;-3.30;99.90
20432;DHT22;10375;49.136;10.366;2024-01-15T01:17:29;-3.30;99.90
20432;DHT22;10375;49.136;10.366;2024-01-15T01:19:57;-3.30;99.90
20432;DHT22;10375;49.136;10.366;2024-01-15T01:22:25;-3.30;99.90
20432;DHT22;10375;49.136;10.366;2024-01-15T01:24:52;-3.30;99.90
20432;DHT22;10375;49.136;10.366;2024-01-15T01:27:19;-3.30;99.90
20432;DHT22;10375;49.136;10.366;2024-01-15T01:29:47;-3.30;99.90
20432;DHT22;10375;49.136;10.366;2024-01-15T01:32:14;-3.20;99.90
20432;DHT22;10375;49.136;10.366;2024-01-15T01:34:41;-3.20;99.90
20432;DHT22;10375;49.136;10.366;2024-01-15T01:37:12;-3.20;99.90
20432;DHT22;10375;49.136;10.366;2024-01-15T01:39:42;-3.20;99.90
20432;DHT22;10375;49.136;10.366;2024-01-15T01:42:10;-3.30;99.90
20432;DHT22;10375;49.136;10.366;2024-01-15T01:44:38;-3.20;99.90
20432;DHT22;10375;49.136;10.366;2024-01-15T01:47:06;-3.20;99.90
20432;DHT22;10375;49.136;10.366;2024-01-15T01:49:33;-3.20;99.90
20432;DHT22;10375;49.136;10.366;2024-01-15T01:52:05;-3.10;99.90
20432;DHT22;10375;49.136;10.366;2024-01-15T01:54:34;-3.10;99.90
20432;DHT22;10375;49.136;10.366;2024-01-15T01:57:03;-3.10;99.90
20432;DHT22;10375;49.136;10.366;2024-01-15T01:59:32;-3.10;99.90
20432;DHT22;10375;49.136;10.366;2024-01-15T02:02:02;-3.10;99.90
20432;DHT22;10375;49.136;10.366;2024-01-15T02:04:32;-3.10;99.90
20432;DHT22;10375;49.136;10.366;2024-01-15T02:07:00;-3.10;99.90
20432;DHT22;10375;49.136;10.366;2024-01-15T02:09:27;-3.00;99.90
20432;DHT22;10375;49.136;10.366;2024-01-15T02:11:55;-3.00;99.90
20432;DHT22;10375;49.136;10.366;2024-01-15T02:14:22;-3.00;99.90
20432;DHT22;10375;49.136;10.366;2024-01-15T02:16:49;-3.00;99.90
20432;DHT22;10375;49.136;10.366;2024-01-15T02:19:17;-3.00;99.90
20432;DHT22;10375;49.136;10.366;2024-01-15T02:21:45;-3.00;99.90
20432;DHT22;10375;49.136;10.366;2024-01-15T02:24:12;-3.00;99.90
20432;DHT22;10375;49.136;10.366;2024-01-15T02:26:39;-3.10;99.90
20432;DHT22;10375;49.136;10.366;2024-01-15T02:29:10;-3.00;99.90
20432;DHT22;10375;49.136;10.366;2024-01-15T02:31:39;-3.00;99.90
20432;DHT22;10375;49.136;10.366;2024-01-15T02:34:06;-2.90;99.90
20432;DHT22;10375;49.136;10.366;2024-01-15T02:36:33;-2.90;99.90
20432;DHT22;10375;49.136;10.366;2024-01-15T02:39:01;-3.00;99.90
20432;DHT22;10375;49.136;10.366;2024-01-15T02:41:28;-2.90;99.90
20432;DHT22;10375;49.136;10.366;2024-01-15T02:43:55;-2.90;99.90
20432;DHT22;10375;49.136;10.366;2024-01-15T02:46:22;-2.90;99.90
20432;DHT22;10375;49.136;10.366;2024-01-15T02:48:49;-2.90;99.90
20432;DHT22;10375;49.136;10.366;2024-01-15T02:51:17;-2.90;99.90
20432;DHT22;10375;49.136;10.366;2024-01-15T02:53:45;-2.80;99.90
20432;DHT22;10375;49.136;10.366;2024-01-15T02:56:12;-2.90;99.90
20432;DHT22;10375;49.136;10.366;2024-01-15T02:58:39;-2.80;99.90
20432;DHT22;10375;49.136;10.366;2024-01-15T03:01:06;-2.80;99.90
20432;DHT22;10375;49.136;10.366;2024-01-15T03:03:33;-2.80;99.90
20432;DHT22;10375;49.136;10.366;2024-01-15T03:06:02;-2.80;99.90
20432;DHT22;10375;49.136;10.366;2024-01-15T03:08:29;-2.80;99.90
20432;DHT22;10375;49.136;10.366;2024-01-15T03:10:56;-2.80;99.90
20432;DHT22;10375;49.136;10.366;2024-01-15T03:13:24;-2.70;99.90
20432;DHT22;10375;49.136;10.366;2024-01-15T03:15:51;-2.70;99.90
20432;DHT22;10375;49.136;10.366;2024-01-15T03:18:18;-2.70;99.90
20432;DHT22;10375;49.136;10.366;2024-01-15T03:20:45;-2.70;99.90
20432;DHT22;10375;49.136;10.366;2024-01-15T03:23:13;-2.70;99.90
20432;DHT22;10375;49.136;10.366;2024-01-15T03:25:40;-2.70;99.90
20432;DHT22;10375;49.136;10.366;2024-01-15T03:28:07;-2.70;99.90
20432;DHT22;10375;49.136;10.366;2024-01-15T03:30:34;-2.70;99.90
20432;DHT22;10375;49.136;10.366;2024-01-15T03:33:01;-2.60;99.90
20432;DHT22;10375;49.136;10.366;2024-01-15T03:35:29;-2.70;99.90
20432;DHT22;10375;49.136;10.366;2024-01-15T03:37:57;-2.60;99.90
20432;DHT22;10375;49.136;10.366;2024-01-15T03:40:24;-2.60;99.90
20432;DHT22;10375;49.136;10.366;2024-01-15T03:42:52;-2.60;99.90
20432;DHT22;10375;49.136;10.366;2024-01-15T03:45:19;-2.60;99.90
20432;DHT22;10375;49.136;10.366;2024-01-15T03:47:47;-2.60;99.90
20432;DHT22;10375;49.136;10.366;2024-01-15T03:50:15;-2.50;99.90
20432;DHT22;10375;49.136;10.366;2024-01-15T03:52:43;-2.50;99.90
20432;DHT22;10375;49.136;10.366;2024-01-15T03:55:11;-2.50;99.90
20432;DHT22;10375;49.136;10.366;2024-01-15T03:57:39;-2.50;99.90
20432;DHT22;10375;49.136;10.366;2024-01-15T04:00:08;-2.50;99.90
20432;DHT22;10375;49.136;10.366;2024-01-15T04:02:35;-2.50;99.90
20432;DHT22;10375;49.136;10.366;2024-01-15T04:05:03;-2.60;99.90
20432;DHT22;10375;49.136;10.366;2024-01-15T04:07:30;-2.50;99.90
20432;DHT22;10375;49.136;10.366;2024-01-15T04:09:57;-2.50;99.90
20432;DHT22;10375;49.136;10.366;2024-01-15T04:12:24;-2.50;99.90
20432;DHT22;10375;49.136;10.366;2024-01-15T04:14:52;-2.40;99.90
20432;DHT22;10375;49.136;10.366;2024-01-15T04:17:19;-2.40;99.90
20432;DHT22;10375;49.136;10.366;2024-01-15T04:19:46;-2.40;99.90
20432;DHT22;10375;49.136;10.366;2024-01-15T04:22:15;-2.40;99.90
20432;DHT22;10375;49.136;10.366;2024-01-15T04:24:42;-2.40;99.90
20432;DHT22;10375;49.136;10.366;2024-01-15T04:27:09;-2.40;99.90
20432;DHT22;10375;49.136;10.366;2024-01-15T04:29:39;-2.40;99.90
20432;DHT22;10375;49.136;10.366;2024-01-15T04:32:07;-2.40;99.90
20432;DHT22;10375;49.136;10.366;2024-01-15T04:34:34;-2.40;99.90
20432;DHT22;10375;49.136;10.366;2024-01-15T04:37:02;-2.40;99.90
20432;DHT22;10375;49.136;10.366;2024-01-15T04:39:29;-2.40;99.90
20432;DHT22;10375;49.136;10.366;2024-01-15T04:41:56;-2.40;99.90
20432;DHT22;10375;49.136;10.366;2024-01-15T04:44:23;-2.40;99.90
20432;DHT22;10375;49.136;10.366;2024-01-15T04:46:51;-2.30;99.90
20432;DHT22;10375;49.136;10.366;2024-01-15T04:49:18;-2.30;99.90
20432;DHT22;10375;49.136;10.366;2024-01-15T04:51:45;-2.40;99.90
20432;DHT22;10375;49.136;10.366;2024-01-15T04:54:12;-2.30;99.90
20432;DHT22;10375;49.136;10.366;2024-01-15T04:56:40;-2.30;99.90
20432;DHT22;10375;49.136;10.366;2024-01-15T04:59:07;-2.30;99.90
20432;DHT22;10375;49.136;10.366;2024-01-15T05:01:34;-2.30;99.90
20432;DHT22;10375;49.136;10.366;2024-01-15T05:04:02;-2.30;99.90
20432;DHT22;10375;49.136;10.366;2024-01-15T05:06:29;-2.30;99.90
20432;DHT22;10375;49.136;10.366;2024-01-15T05:08:56;-2.30;99.90
20432;DHT22;10375;49.136;10.366;2024-01-15T05:11:23;-2.30;99.90
20432;DHT22;10375;49.136;10.366;2024-01-15T05:13:50;-2.30;99.90
20432;DHT22;10375;49.136;10.366;2024-01-15T05:16:21;-2.30;99.90
20432;DHT22;10375;49.136;10.366;2024-01-15T05:18:48;-2.30;99.90
20432;DHT22;10375;49.136;10.366;2024-01-15T05:21:15;-2.30;99.90
20432;DHT22;10375;49.136;10.366;2024-01-15T05:23:42;-2.30;99.90
20432;DHT22;10375;49.136;10.366;2024-01-15T05:26:10;-2.20;99.90
20432;DHT22;10375;49.136;10.366;2024-01-15T05:28:37;-2.20;99.90
20432;DHT22;10375;49.136;10.366;2024-01-15T05:31:04;-2.30;99.90
20432;DHT22;10375;49.136;10.366;2024-01-15T05:33:31;-2.20;99.90
20432;DHT22;10375;49.136;10.366;2024-01-15T05:35:58;-2.20;99.90
20432;DHT22;10375;49.136;10.366;2024-01-15T05:38:27;-2.20;99.90
20432;DHT22;10375;49.136;10.366;2024-01-15T05:40:54;-2.20;99.90
20432;DHT22;10375;49.136;10.366;2024-01-15T05:43:21;-2.10;99.90
20432;DHT22;10375;49.136;10.366;2024-01-15T05:45:48;-2.20;99.90
20432;DHT22;10375;49.136;10.366;2024-01-15T05:48:16;-2.10;99.90
20432;DHT22;10375;49.136;10.366;2024-01-15T05:50:43;-2.10;99.90
20432;DHT22;10375;49.136;10.366;2024-01-15T05:53:10;-2.20;99.90
20432;DHT22;10375;49.136;10.366;2024-01-15T05:55:37;-2.10;99.90
20432;DHT22;10375;49.136;10.366;2024-01-15T05:58:07;-2.20;99.90
20432;DHT22;10375;49.136;10.366;2024-01-15T06:00:34;-2.20;99.90
20432;DHT22;10375;49.136;10.366;2024-01-15T06:03:03;-2.10;99.90
20432;DHT22;10375;49.136;10.366;2024-01-15T06:05:30;-2.10;99.90
20432;DHT22;10375;49.136;10.366;2024-01-15T06:07:57;-2.20;99.90
20432;DHT22;10375;49.136;10.366;2024-01-15T06:10:24;-2.10;99.90
20432;DHT22;10375;49.136;10.366;2024-01-15T06:12:51;-2.10;99.90
20432;DHT22;10375;49.136;10.366;2024-01-15T06:15:18;-2.10;99.90
20432;DHT22;10375;49.136;10.366;2024-01-15T06:17:45;-2.00;99.90
20432;DHT22;10375;49.136;10.366;2024-01-15T06:20:13;-2.10;99.90
20432;DHT22;10375;49.136;10.366;2024-01-15T06:22:40;-2.10;99.90
20432;DHT22;10375;49.136;10.366;2024-01-15T06:25:08;-2.00;99.90
20432;DHT22;10375;49.136;10.366;2024-01-15T06:27:35;-2.10;99.90
20432;DHT22;10375;49.136;10.366;2024-01-15T06:30:03;-2.10;99.90
20432;DHT22;10375;49.136;10.366;2024-01-15T06:32:30;-2.10;99.90
20432;DHT22;10375;49.136;10.366;2024-01-15T06:34:57;-2.10;99.90
20432;DHT22;10375;49.136;10.366;2024-01-15T06:37:24;-2.10;99.90
20432;DHT22;10375;49.136;10.366;2024-01-15T06:39:51;-2.10;99.90
20432;DHT22;10375;49.136;10.366;2024-01-15T06:42:19;-2.00;99.90
20432;DHT22;10375;49.136;10.366;2024-01-15T06:44:49;-2.00;99.90
20432;DHT22;10375;49.136;10.366;2024-01-15T06:47:16;-2.00;99.90
20432;DHT22;10375;49.136;10.366;2024-01-15T06:49:44;-2.00;99.90
20432;DHT22;10375;49.136;10.366;2024-01-15T06:52:11;-2.00;99.90
20432;DHT22;10375;49.136;10.366;2024-01-15T06:54:39;-2.10;99.90
20432;DHT22;10375;49.136;10.366;2024-01-15T06:57:06;-2.00;99.90
20432;DHT22;10375;49.136;10.366;2024-01-15T06:59:34;-2.00;99.90
20432;DHT22;10375;49.136;10.366;2024-01-15T07:02:02;-2.00;99.90
20432;DHT22;10375;49.136;10.366;2024-01-15T07:04:29;-2.00;99.90
20432;DHT22;10375;49.136;10.366;2024-01-15T07:06:56;-2.00;99.90
20432;DHT22;10375;49.136;10.366;2024-01-15T07:09:24;-1.90;99.90
20432;DHT22;10375;49.136;10.366;2024-01-15T07:11:51;-2.00;99.90
20432;DHT22;10375;49.136;10.366;2024-01-15T07:14:18;-1.90;99.90
20432;DHT22;10375;49.136;10.366;2024-01-15T07:16:45;-1.90;99.90
20432;DHT22;10375;49.136;10.366;2024-01-15T07:19:14;-1.90;99.90
20432;DHT22;10375;49.136;10.366;2024-01-15T07:21:42;-1.90;99.90
20432;DHT22;10375;49.136;10.366;2024-01-15T07:24:10;-1.90;99.90
20432;DHT22;10375;49.136;10.366;2024-01-15T07:26:37;-1.90;99.90
20432;DHT22;10375;49.136;10.366;2024-01-15T07:29:04;-1.80;99.90
20432;DHT22;10375;49.136;10.366;2024-01-15T07:31:31;-1.80;99.90
20432;DHT22;10375;49.136;10.366;2024-01-15T07:33:59;-1.80;99.90
20432;DHT22;10375;49.136;10.366;2024-01-15T07:36:27;-1.80;99.90
20432;DHT22;10375;49.136;10.366;2024-01-15T07:38:54;-1.80;99.90
20432;DHT22;10375;49.136;10.366;2024-01-15T07:41:21;-1.80;99.90
20432;DHT22;10375;49.136;10.366;2024-01-15T07:43:49;-1.70;99.90
20432;DHT22;10375;49.136;10.366;2024-01-15T07:46:16;-1.70;99.90
20432;DHT22;10375;49.136;10.366;2024-01-15T07:48:43;-1.70;99.90
20432;DHT22;10375;49.136;10.366;2024-01-15T07:51:11;-1.70;99.90
20432;DHT22;10375;49.136;10.366;2024-01-15T07:53:38;-1.70;99.90
20432;DHT22;10375;49.136;10.366;2024-01-15T07:56:09;-1.70;99.90
20432;DHT22;10375;49.136;10.366;2024-01-15T07:58:38;-1.70;99.90
20432;DHT22;10375;49.136;10.366;2024-01-15T08:01:06;-1.60;99.90
20432;DHT22;10375;49.136;10.366;2024-01-15T08:03:33;-1.60;99.90
20432;DHT22;10375;49.136;10.366;2024-01-15T08:06:01;-1.50;99.90
20432;DHT22;10375;49.136;10.366;2024-01-15T08:08:28;-1.50;99.90
20432;DHT22;10375;49.136;10.366;2024-01-15T08:10:56;-1.50;99.90
20432;DHT22;10375;49.136;10.366;2024-01-15T08:13:23;-1.40;99.90
20432;DHT22;10375;49.136;10.366;2024-01-15T08:15:53;-1.40;99.90
20432;DHT22;10375;49.136;10.366;2024-01-15T08:18:20;-1.40;99.90
20432;DHT22;10375;49.136;10.366;2024-01-15T08:20:48;-1.40;99.90
20432;DHT22;10375;49.136;10.366;2024-01-15T08:23:18;-1.30;99.90
20432;DHT22;10375;49.136;10.366;2024-01-15T08:25:45;-1.30;99.90
20432;DHT22;10375;49.136;10.366;2024-01-15T08:28:12;-1.30;99.90
20432;DHT22;10375;49.136;10.366;2024-01-15T08:30:39;-1.30;99.90
20432;DHT22;10375;49.136;10.366;2024-01-15T08:33:06;-1.30;99.90
20432;DHT22;10375;49.136;10.366;2024-01-15T08:35:46;-1.20;99.90
20432;DHT22;10375;49.136;10.366;2024-01-15T08:38:13;-1.20;99.90
20432;DHT22;10375;49.136;10.366;2024-01-15T08:40:41;-1.20;99.90
20432;DHT22;10375;49.136;10.366;2024-01-15T08:43:08;-1.20;99.90
20432;DHT22;10375;49.136;10.366;2024-01-15T08:45:35;-1.20;99.90
20432;DHT22;10375;49.136;10.366;2024-01-15T08:48:02;-1.10;99.90
20432;DHT22;10375;49.136;10.366;2024-01-15T08:50:31;-1.10;99.90
20432;DHT22;10375;49.136;10.366;2024-01-15T08:52:59;-1.10;99.90
20432;DHT22;10375;49.136;10.366;2024-01-15T08:55:26;-1.00;99.90
20432;DHT22;10375;49.136;10.366;2024-01-15T08:57:53;-1.00;99.90
20432;DHT22;10375;49.136;10.366;2024-01-15T09:00:21;-1.00;99.90
20432;DHT22;10375;49.136;10.366;2024-01-15T09:02:48;-1.00;99.90
20432;DHT22;10375;49.136;10.366;2024-01-15T09:05:15;-1.00;99.90
20432;DHT22;10375;49.136;10.366;2024-01-15T09:07:42;-1.00;99.90
20432;DHT22;10375;49.136;10.366;2024-01-15T09:10:10;-0.80;99.90
20432;DHT22;10375;49.136;10.366;2024-01-15T09:12:37;-0.80;99.90
20432;DHT22;10375;49.136;10.366;2024-01-15T09:15:06;-0.80;99.90
20432;DHT22;10375;49.136;10.366;2024-01-15T09:17:33;-0.80;99.90
20432;DHT22;10375;49.136;10.366;2024-01-15T09:20:01;-0.80;99.90
20432;DHT22;10375;49.136;10.366;2024-01-15T09:22:29;-0.80;99.90
20432;DHT22;10375;49.136;10.366;2024-01-15T09:24:57;-0.70;99.90
20432;DHT22;10375;49.136;10.366;2024-01-15T09:27:25;-0.60;99.90
20432;DHT22;10375;49.136;10.366;2024-01-15T09:29:55;-0.60;99.90
20432;DHT22;10375;49.136;10.366;2024-01-15T09:32:23;-0.50;99.90
20432;DHT22;10375;49.136;10.366;2024-01-15T09:34:50;-0.30;99.90
20432;DHT22;10375;49.136;10.366;2024-01-15T09:37:18;-0.20;99.90
20432;DHT22;10375;49.136;10.366;2024-01-15T09:40:06;-0.10;99.90
20432;DHT22;10375;49.136;10.366;2024-01-15T09:42:35;0.10;99.90
20432;DHT22;10375;49.136;10.366;2024-01-15T09:45:03;0.10;99.90
20432;DHT22;10375;49.136;10.366;2024-01-15T09:47:30;0.20;99.90
20432;DHT22;10375;49.136;10.366;2024-01-15T09:49:58;0.30;99.90
20432;DHT22;10375;49.136;10.366;2024-01-15T09:52:25;0.40;99.90
20432;DHT22;10375;49.136;10.366;2024-01-15T09:54:53;0.50;99.90
20432;DHT22;10375;49.136;10.366;2024-01-15T09:57:21;0.30;99.90
20432;DHT22;10375;49.136;10.366;2024-01-15T09:59:50;0.20;99.90
20432;DHT22;10375;49.136;10.366;2024-01-15T10:02:18;0.10;99.90
20432;DHT22;10375;49.136;10.366;2024-01-15T10:04:46;0.00;99.90
20432;DHT22;10375;49.136;10.366;2024-01-15T10:07:16;-0.10;99.90
20432;DHT22;10375;49.136;10.366;2024-01-15T10:09:46;-0.10;99.90
20432;DHT22;10375;49.136;10.366;2024-01-15T10:12:14;-0.10;99.90
20432;DHT22;10375;49.136;10.366;2024-01-15T10:14:41;0.00;99.90
20432;DHT22;10375;49.136;10.366;2024-01-15T10:17:13;0.10;99.90
20432;DHT22;10375;49.136;10.366;2024-01-15T10:19:42;0.20;99.90
20432;DHT22;10375;49.136;10.366;2024-01-15T10:22:15;0.20;99.90
20432;DHT22;10375;49.136;10.366;2024-01-15T10:24:42;0.20;99.90
20432;DHT22;10375;49.136;10.366;2024-01-15T10:27:10;0.30;99.90
20432;DHT22;10375;49.136;10.366;2024-01-15T10:29:38;0.30;99.90
20432;DHT22;10375;49.136;10.366;2024-01-15T10:32:08;0.40;99.90
20432;DHT22;10375;49.136;10.366;2024-01-15T10:34:39;0.40;99.90
20432;DHT22;10375;49.136;10.366;2024-01-15T10:37:10;0.30;99.90
20432;DHT22;10375;49.136;10.366;2024-01-15T10:39:37;0.30;99.90
20432;DHT22;10375;49.136;10.366;2024-01-15T10:42:06;0.30;99.90
20432;DHT22;10375;49.136;10.366;2024-01-15T10:44:34;0.30;99.90
20432;DHT22;10375;49.136;10.366;2024-01-15T10:47:02;0.50;99.90
20432;DHT22;10375;49.136;10.366;2024-01-15T10:49:30;0.50;99.90
20432;DHT22;10375;49.136;10.366;2024-01-15T10:52:01;0.60;99.90
20432;DHT22;10375;49.136;10.366;2024-01-15T10:54:29;0.50;99.90
20432;DHT22;10375;49.136;10.366;2024-01-15T10:56:57;0.40;99.90
20432;DHT22;10375;49.136;10.366;2024-01-15T10:59:24;0.30;99.90
20432;DHT22;10375;49.136;10.366;2024-01-15T11:01:52;0.40;99.90
20432;DHT22;10375;49.136;10.366;2024-01-15T11:04:23;0.50;99.90
20432;DHT22;10375;49.136;10.366;2024-01-15T11:06:55;0.70;99.90
20432;DHT22;10375;49.136;10.366;2024-01-15T11:09:24;0.70;99.90
20432;DHT22;10375;49.136;10.366;2024-01-15T11:12:06;0.70;99.90
20432;DHT22;10375;49.136;10.366;2024-01-15T11:14:46;0.70;99.90
20432;DHT22;10375;49.136;10.366;2024-01-15T11:17:16;0.60;99.90
20432;DHT22;10375;49.136;10.366;2024-01-15T11:19:48;0.50;99.90
20432;DHT22;10375;49.136;10.366;2024-01-15T11:25:01;0.60;99.90
20432;DHT22;10375;49.136;10.366;2024-01-15T11:27:49;0.60;99.90
20432;DHT22;10375;49.136;10.366;2024-01-15T11:30:24;0.50;99.90
20432;DHT22;10375;49.136;10.366;2024-01-15T11:32:54;0.50;99.90
20432;DHT22;10375;49.136;10.366;2024-01-15T11:35:22;0.50;99.90
20432;DHT22;10375;49.136;10.366;2024-01-15T11:43:06;0.60;99.90
20432;DHT22;10375;49.136;10.366;2024-01-15T11:45:34;0.60;99.90
20432;DHT22;10375;49.136;10.366;2024-01-15T11:48:14;0.60;99.90
20432;DHT22;10375;49.136;10.366;2024-01-15T11:50:48;0.50;99.90
20432;DHT22;10375;49.136;10.366;2024-01-15T11:53:31;0.50;99.90
20432;DHT22;10375;49.136;10.366;2024-01-15T11:56:09;0.40;99.90
20432;DHT22;10375;49.136;10.366;2024-01-15T11:58:37;0.40;99.90
20432;DHT22;10375;49.136;10.366;2024-01-15T12:01:04;0.40;99.90
20432;DHT22;10375;49.136;10.366;2024-01-15T12:03:32;0.40;99.90
20432;DHT22;10375;49.136;10.366;2024-01-15T12:06:06;0.40;99.90
20432;DHT22;10375;49.136;10.366;2024-01-15T12:08:33;0.40;99.90
20432;DHT22;10375;49.136;10.366;2024-01-15T12:11:07;0.30;99.90
20432;DHT22;10375;49.136;10.366;2024-01-15T12:13:38;0.30;99.90
20432;DHT22;10375;49.136;10.366;2024-01-15T12:16:08;0.30;99.90
20432;DHT22;10375;49.136;10.366;2024-01-15T12:18:38;0.20;99.90
20432;DHT22;10375;49.136;10.366;2024-01-15T12:21:09;0.20;99.90
20432;DHT22;10375;49.136;10.366;2024-01-15T12:23:41;0.20;99.90
20432;DHT22;10375;49.136;10.366;2024-01-15T12:26:38;0.20;99.90
20432;DHT22;10375;49.136;10.366;2024-01-15T12:29:38;0.30;99.90
20432;DHT22;10375;49.136;10.366;2024-01-15T12:32:27;0.20;99.90
20432;DHT22;10375;49.136;10.366;2024-01-15T12:35:07;0.20;99.90
20432;DHT22;10375;49.136;10.366;2024-01-15T12:37:49;0.10;99.90
20432;DHT22;10375;49.136;10.366;2024-01-15T12:41:12;0.10;99.90
20432;DHT22;10375;49.136;10.366;2024-01-15T12:43:56;0.10;99.90
20432;DHT22;10375;49.136;10.366;2024-01-15T12:46:49;0.20;99.90
20432;DHT22;10375;49.136;10.366;2024-01-15T12:49:41;0.20;99.90
20432;DHT22;10375;49.136;10.366;2024-01-15T12:52:51;0.30;99.90
20432;DHT22;10375;49.136;10.366;2024-01-15T12:55:20;0.30;99.90
20432;DHT22;10375;49.136;10.366;2024-01-15T12:57:48;0.40;99.90
20432;DHT22;10375;49.136;10.366;2024-01-15T13:00:17;0.50;99.90
20432;DHT22;10375;49.136;10.366;2024-01-15T13:02:53;0.50;99.90
20432;DHT22;10375;49.136;10.366;2024-01-15T13:05:25;0.60;99.90
20432;DHT22;10375;49.136;10.366;2024-01-15T13:07:57;0.60;99.90
20432;DHT22;10375;49.136;10.366;2024-01-15T13:10:34;0.50;99.90
20432;DHT22;10375;49.136;10.366;2024-01-15T13:13:10;0.60;99.90
20432;DHT22;10375;49.136;10.366;2024-01-15T13:15:38;0.60;99.90
20432;DHT22;10375;49.136;10.366;2024-01-15T13:18:07;0.70;99.90
20432;DHT22;10375;49.136;10.366;2024-01-15T13:20:34;0.60;99.90
20432;DHT22;10375;49.136;10.366;2024-01-15T13:23:03;0.70;99.90
20432;DHT22;10375;49.136;10.366;2024-01-15T13:25:31;0.50;99.90
20432;DHT22;10375;49.136;10.366;2024-01-15T13:27:59;0.60;99.90
20432;DHT22;10375;49.136;10.366;2024-01-15T13:30:26;0.60;99.90
20432;DHT22;10375;49.136;10.366;2024-01-15T13:32:54;0.50;99.90
20432;DHT22;10375;49.136;10.366;2024-01-15T13:35:23;0.60;99.90
20432;DHT22;10375;49.136;10.366;2024-01-15T13:37:50;0.60;99.90
20432;DHT22;10375;49.136;10.366;2024-01-15T13:40:17;0.60;99.90
20432;DHT22;10375;49.136;10.366;2024-01-15T13:42:47;0.60;99.90
20432;DHT22;10375;49.136;10.366;2024-01-15T13:45:14;0.50;99.90
20432;DHT22;10375;49.136;10.366;2024-01-15T13:47:42;0.50;99.90
20432;DHT22;10375;49.136;10.366;2024-01-15T13:50:10;0.60;99.90
20432;DHT22;10375;49.136;10.366;2024-01-15T13:52:38;0.50;99.90
20432;DHT22;10375;49.136;10.366;2024-01-15T13:55:05;0.50;99.90
20432;DHT22;10375;49.136;10.366;2024-01-15T13:57:33;0.50;99.90
20432;DHT22;10375;49.136;10.366;2024-01-15T14:00:00;0.50;99.90
20432;DHT22;10375;49.136;10.366;2024-01-15T14:02:27;0.50;99.90
20432;DHT22;10375;49.136;10.366;2024-01-15T14:04:54;0.50;99.90
20432;DHT22;10375;49.136;10.366;2024-01-15T14:11:15;0.40;99.90
20432;DHT22;10375;49.136;10.366;2024-01-15T14:14:06;0.30;99.90
20432;DHT22;10375;49.136;10.366;2024-01-15T14:24:08;0.20;99.90
20432;DHT22;10375;49.136;10.366;2024-01-15T14:30:24;0.20;99.90
20432;DHT22;10375;49.136;10.366;2024-01-15T14:33:10;0.20;99.90
20432;DHT22;10375;49.136;10.366;2024-01-15T14:35:38;0.10;99.90
20432;DHT22;10375;49.136;10.366;2024-01-15T14:38:08;0.00;99.90
20432;DHT22;10375;49.136;10.366;2024-01-15T14:40:38;0.00;99.90
20432;DHT22;10375;49.136;10.366;2024-01-15T14:43:06;0.00;99.90
20432;DHT22;10375;49.136;10.366;2024-01-15T14:45:34;0.00;99.90
20432;DHT22;10375;49.136;10.366;2024-01-15T14:48:11;0.00;99.90
20432;DHT22;10375;49.136;10.366;2024-01-15T14:50:41;0.00;99.90
20432;DHT22;10375;49.136;10.366;2024-01-15T14:53:12;0.00;99.90
20432;DHT22;10375;49.136;10.366;2024-01-15T14:55:40;-0.10;99.90
20432;DHT22;10375;49.136;10.366;2024-01-15T14:58:07;0.00;99.90
20432;DHT22;10375;49.136;10.366;2024-01-15T15:00:34;0.00;99.90
20432;DHT22;10375;49.136;10.366;2024-01-15T15:03:03;0.00;99.90
20432;DHT22;10375;49.136;10.366;2024-01-15T15:05:30;0.00;99.90
20432;DHT22;10375;49.136;10.366;2024-01-15T15:07:58;0.00;99.90
20432;DHT22;10375;49.136;10.366;2024-01-15T15:10:27;0.00;99.90
20432;DHT22;10375;49.136;10.366;2024-01-15T15:12:54;-0.10;99.90
20432;DHT22;10375;49.136;10.366;2024-01-15T15:15:22;-0.10;99.90
20432;DHT22;10375;49.136;10.366;2024-01-15T15:17:57;-0.20;99.90
20432;DHT22;10375;49.136;10.366;2024-01-15T15:20:24;-0.30;99.90
20432;DHT22;10375;49.136;10.366;2024-01-15T15:22:56;-0.30;99.90
20432;DHT22;10375;49.136;10.366;2024-01-15T15:25:23;-0.40;99.90
20432;DHT22;10375;49.136;10.366;2024-01-15T15:27:51;-0.50;99.90
20432;DHT22;10375;49.136;10.366;2024-01-15T15:30:18;-0.50;99.90
20432;DHT22;10375;49.136;10.366;2024-01-15T15:32:45;-0.50;99.90
20432;DHT22;10375;49.136;10.366;2024-01-15T15:35:14;-0.50;99.90
20432;DHT22;10375;49.136;10.366;2024-01-15T15:37:41;-0.60;99.90
20432;DHT22;10375;49.136;10.366;2024-01-15T15:40:09;-0.60;99.90
20432;DHT22;10375;49.136;10.366;2024-01-15T15:42:38;-0.60;99.90
20432;DHT22;10375;49.136;10.366;2024-01-15T15:45:06;-0.70;99.90
20432;DHT22;10375;49.136;10.366;2024-01-15T15:47:37;-0.70;99.90
20432;DHT22;10375;49.136;10.366;2024-01-15T15:50:13;-0.70;99.90
20432;DHT22;10375;49.136;10.366;2024-01-15T15:52:47;-0.70;99.90
20432;DHT22;10375;49.136;10.366;2024-01-15T15:55:14;-0.70;99.90